Time;durP1;ratioP1;P1;durP2;ratioP2;P2;SDS_P1;SDS_P2;PMS_P1;PMS_P2;Temp;Humidity;BMP_temperature;BMP_pressure;BME280_temperature;BME280_humidity;BME280_pressure;Samples;Min_cycle;Max_cycle;Signal;HPM_P1;HPM_P2
2024/01/16 00:01:47;;;;;;;3.67;0.70;;;;;;;;;;5049101;28;20428;-72
2024/01/16 00:04:14;;;;;;;4.27;0.47;;;;;;;;;;5048424;28;20899;-72
2024/01/16 00:06:41;;;;;;;2.33;0.80;;;;;;;;;;5066733;28;20515;-73
2024/01/16 00:09:12;;;;;;;1.43;0.43;;;;;;;;;;5030900;28;20484;-71
2024/01/16 00:11:42;;;;;;;1.70;0.50;;;;;;;;;;5048775;28;20465;-68
2024/01/16 00:14:09;;;;;;;2.47;0.40;;;;;;;;;;5037763;28;20390;-68
2024/01/16 00:16:45;;;;;;;3.13;0.80;;;;;;;;;;5036697;28;20429;-65
2024/01/16 00:19:12;;;;;;;2.23;0.50;;;;;;;;;;5037654;28;20406;-68
2024/01/16 00:21:47;;;;;;;1.37;0.60;;;;;;;;;;5038370;28;21034;-68
2024/01/16 00:24:31;;;;;;;3.63;0.90;;;;;;;;;;5039961;28;20467;-68
2024/01/16 00:26:58;;;;;;;2.93;0.70;;;;;;;;;;5054949;28;20478;-68
2024/01/16 00:29:25;;;;;;;1.07;0.50;;;;;;;;;;5054920;28;20457;-68
2024/01/16 00:31:51;;;;;;;2.90;0.70;;;;;;;;;;5055243;28;20831;-68
2024/01/16 00:34:18;;;;;;;2.40;0.57;;;;;;;;;;5055372;28;20444;-68
2024/01/16 00:36:45;;;;;;;1.07;0.60;;;;;;;;;;5054755;28;20418;-68
2024/01/16 00:39:13;;;;;;;7.23;0.80;;;;;;;;;;5036193;28;20842;-70
2024/01/16 00:41:40;;;;;;;1.70;0.60;;;;;;;;;;5037122;28;20441;-68
2024/01/16 00:47:59;;;;;;;4.23;0.50;;;;;;;;;;5054749;28;20805;-68
2024/01/16 00:50:46;;;;;;;1.33;0.60;;;;;;;;;;5039484;28;20488;-68
2024/01/16 00:53:12;;;;;;;1.10;0.40;;;;;;;;;;5036752;28;20434;-68
2024/01/16 00:55:39;;;;;;;1.97;0.70;;;;;;;;;;5037080;28;20769;-68
2024/01/16 00:58:06;;;;;;;1.67;0.53;;;;;;;;;;5055035;28;20745;-68
2024/01/16 01:00:34;;;;;;;1.73;0.47;;;;;;;;;;5036751;28;20457;-67
2024/01/16 01:03:03;;;;;;;0.83;0.30;;;;;;;;;;5037721;28;20421;-68
2024/01/16 01:05:30;;;;;;;2.60;0.47;;;;;;;;;;5036632;28;20449;-68
2024/01/16 01:07:57;;;;;;;0.93;0.30;;;;;;;;;;5043261;28;20507;-67
2024/01/16 01:10:24;;;;;;;2.13;0.60;;;;;;;;;;5074373;28;20471;-68
2024/01/16 01:12:54;;;;;;;3.53;0.50;;;;;;;;;;5056723;28;20439;-67
2024/01/16 01:47:25;;;;;;;1.97;0.47;;;;;;;;;;5094041;28;20367;-67
2024/01/16 01:49:52;;;;;;;3.20;0.73;;;;;;;;;;5094693;28;20468;-68
2024/01/16 01:52:18;;;;;;;0.97;0.43;;;;;;;;;;5059935;28;20427;-68
2024/01/16 01:54:45;;;;;;;0.77;0.23;;;;;;;;;;5093736;28;20489;-68
2024/01/16 01:57:11;;;;;;;0.93;0.30;;;;;;;;;;5093598;28;20411;-67
2024/01/16 01:59:38;;;;;;;1.03;0.33;;;;;;;;;;5059224;28;20434;-67
2024/01/16 02:02:05;;;;;;;1.13;0.30;;;;;;;;;;5076226;28;20805;-68
2024/01/16 02:04:32;;;;;;;0.90;0.40;;;;;;;;;;5093958;28;20422;-68
2024/01/16 02:06:58;;;;;;;1.17;0.30;;;;;;;;;;5075721;28;20489;-68
2024/01/16 02:09:25;;;;;;;2.80;0.33;;;;;;;;;;5094000;28;20922;-68
2024/01/16 02:11:51;;;;;;;1.03;0.30;;;;;;;;;;5059127;28;20435;-68
2024/01/16 02:14:18;;;;;;;0.70;0.40;;;;;;;;;;5075733;28;20514;-68
2024/01/16 02:16:45;;;;;;;5.60;0.60;;;;;;;;;;5075755;28;20410;-68
2024/01/16 02:19:12;;;;;;;1.53;0.40;;;;;;;;;;5059010;28;20456;-68
2024/01/16 02:21:43;;;;;;;0.53;0.40;;;;;;;;;;5094021;28;20493;-68
2024/01/16 02:24:13;;;;;;;3.03;0.60;;;;;;;;;;5076068;28;20898;-68
2024/01/16 02:26:41;;;;;;;1.93;0.50;;;;;;;;;;5058959;28;20662;-68
2024/01/16 02:29:07;;;;;;;2.60;0.90;;;;;;;;;;5093761;28;20860;-68
2024/01/16 02:31:34;;;;;;;1.70;0.40;;;;;;;;;;5075535;28;20794;-68
2024/01/16 02:34:01;;;;;;;1.13;0.50;;;;;;;;;;5075561;28;20440;-68
2024/01/16 02:36:29;;;;;;;2.57;0.53;;;;;;;;;;5058972;28;20434;-68
2024/01/16 02:38:56;;;;;;;2.43;0.93;;;;;;;;;;5059194;28;20907;-65
2024/01/16 02:41:22;;;;;;;2.67;0.57;;;;;;;;;;5062760;28;20490;-65
2024/01/16 02:43:49;;;;;;;1.03;0.43;;;;;;;;;;5062688;28;20483;-65
2024/01/16 02:46:16;;;;;;;1.23;0.33;;;;;;;;;;5097175;28;20416;-65
2024/01/16 02:48:42;;;;;;;0.90;0.40;;;;;;;;;;5097368;28;20427;-65
2024/01/16 02:51:09;;;;;;;1.80;0.60;;;;;;;;;;5097130;28;20426;-65
2024/01/16 02:53:36;;;;;;;0.73;0.40;;;;;;;;;;5097650;28;20434;-65
2024/01/16 02:56:20;;;;;;;1.90;0.50;;;;;;;;;;5082074;28;20410;-65
2024/01/16 02:58:47;;;;;;;1.43;0.47;;;;;;;;;;5062542;28;20442;-66
2024/01/16 03:01:14;;;;;;;0.97;0.10;;;;;;;;;;5062400;28;20431;-66
2024/01/16 03:03:40;;;;;;;1.53;0.50;;;;;;;;;;5078947;28;20415;-66
2024/01/16 03:06:07;;;;;;;0.83;0.47;;;;;;;;;;5078936;28;20815;-67
2024/01/16 03:08:51;;;;;;;0.70;0.33;;;;;;;;;;5078731;28;20800;-66
2024/01/16 03:11:18;;;;;;;0.67;0.50;;;;;;;;;;5078805;28;20798;-66
2024/01/16 03:14:03;;;;;;;2.40;0.40;;;;;;;;;;5081482;28;20380;-66
2024/01/16 03:16:30;;;;;;;0.47;0.30;;;;;;;;;;5078832;28;20773;-66
2024/01/16 03:19:13;;;;;;;2.50;0.40;;;;;;;;;;5081363;28;20380;-66
2024/01/16 03:21:41;;;;;;;2.37;0.40;;;;;;;;;;5097750;28;20414;-66
2024/01/16 03:24:08;;;;;;;1.33;0.40;;;;;;;;;;5062433;28;20440;-66
2024/01/16 03:26:34;;;;;;;6.10;0.40;;;;;;;;;;5079442;28;20743;-66
2024/01/16 03:29:01;;;;;;;3.30;0.70;;;;;;;;;;5096369;28;20492;-66
2024/01/16 03:31:27;;;;;;;0.90;0.40;;;;;;;;;;5096330;28;20429;-66
2024/01/16 03:33:54;;;;;;;0.23;0.23;;;;;;;;;;5096687;28;20428;-66
2024/01/16 03:36:21;;;;;;;0.63;0.50;;;;;;;;;;5097112;28;20461;-66
2024/01/16 03:38:48;;;;;;;5.40;0.70;;;;;;;;;;5096807;28;20420;-66
2024/01/16 03:41:15;;;;;;;1.27;0.57;;;;;;;;;;5096183;28;20926;-66
2024/01/16 03:43:41;;;;;;;1.20;0.70;;;;;;;;;;5096435;28;20433;-66
2024/01/16 03:46:10;;;;;;;3.17;0.87;;;;;;;;;;5078193;28;20453;-66
2024/01/16 03:48:37;;;;;;;2.40;0.70;;;;;;;;;;5062078;28;20444;-66
2024/01/16 03:51:03;;;;;;;1.60;0.47;;;;;;;;;;5077604;28;20463;-66
2024/01/16 03:53:30;;;;;;;2.90;0.80;;;;;;;;;;5096220;28;20431;-66
2024/01/16 03:55:57;;;;;;;0.93;0.77;;;;;;;;;;5078319;28;20526;-66
2024/01/16 03:58:24;;;;;;;1.53;0.60;;;;;;;;;;5096084;28;20428;-66
2024/01/16 04:00:51;;;;;;;5.87;1.43;;;;;;;;;;5095813;28;20506;-66
2024/01/16 04:03:19;;;;;;;1.90;0.73;;;;;;;;;;5096530;28;20439;-66
2024/01/16 04:05:45;;;;;;;2.63;0.50;;;;;;;;;;5096815;28;20424;-66
2024/01/16 04:08:13;;;;;;;1.90;0.60;;;;;;;;;;5095879;28;20953;-66
2024/01/16 04:10:40;;;;;;;2.20;0.77;;;;;;;;;;5061099;28;20464;-66
2024/01/16 04:13:07;;;;;;;1.93;0.70;;;;;;;;;;5077693;28;20539;-66
2024/01/16 04:15:33;;;;;;;3.90;1.30;;;;;;;;;;5096340;28;20413;-66
2024/01/16 04:18:00;;;;;;;3.23;1.23;;;;;;;;;;5061149;28;20422;-66
2024/01/16 04:20:27;;;;;;;3.90;1.00;;;;;;;;;;5095475;28;20437;-66
2024/01/16 04:22:54;;;;;;;2.30;0.70;;;;;;;;;;5077484;28;20430;-66
2024/01/16 04:25:20;;;;;;;3.27;0.93;;;;;;;;;;5095236;28;20839;-66
2024/01/16 04:27:47;;;;;;;3.20;0.87;;;;;;;;;;5077388;28;20424;-66
2024/01/16 04:30:13;;;;;;;1.13;0.70;;;;;;;;;;5077446;28;20515;-66
2024/01/16 04:32:40;;;;;;;4.17;0.90;;;;;;;;;;5077148;28;20450;-66
2024/01/16 04:35:07;;;;;;;1.87;0.70;;;;;;;;;;5060835;28;20433;-66
2024/01/16 04:37:34;;;;;;;1.47;0.30;;;;;;;;;;5095007;28;20538;-66
2024/01/16 04:40:01;;;;;;;3.00;0.90;;;;;;;;;;5060619;28;20439;-66
2024/01/16 04:42:29;;;;;;;1.53;0.90;;;;;;;;;;5061348;28;20429;-66
2024/01/16 04:45:14;;;;;;;1.60;1.00;;;;;;;;;;5086947;28;20914;-66
2024/01/16 04:47:41;;;;;;;4.73;1.37;;;;;;;;;;5095078;28;20425;-66
2024/01/16 04:50:08;;;;;;;2.90;0.57;;;;;;;;;;5060759;28;20461;-66
2024/01/16 04:52:35;;;;;;;0.80;0.40;;;;;;;;;;5095426;28;20466;-66
2024/01/16 04:55:02;;;;;;;2.63;0.70;;;;;;;;;;5077188;28;20454;-66
2024/01/16 04:57:47;;;;;;;1.20;0.70;;;;;;;;;;5076765;28;20407;-66
2024/01/16 05:00:13;;;;;;;2.43;0.63;;;;;;;;;;5076754;28;20426;-66
2024/01/16 05:02:40;;;;;;;2.47;1.03;;;;;;;;;;5094226;28;20477;-66
2024/01/16 05:05:07;;;;;;;2.10;0.50;;;;;;;;;;5094577;28;20438;-66
2024/01/16 05:07:35;;;;;;;3.17;0.73;;;;;;;;;;5076801;28;20451;-66
2024/01/16 05:10:02;;;;;;;3.87;0.50;;;;;;;;;;5094699;28;20832;-66
2024/01/16 05:12:29;;;;;;;1.67;0.53;;;;;;;;;;5076491;28;20431;-66
2024/01/16 05:14:55;;;;;;;2.93;0.80;;;;;;;;;;5076356;28;20492;-66
2024/01/16 05:17:22;;;;;;;1.60;0.60;;;;;;;;;;5094346;28;20430;-66
2024/01/16 05:19:49;;;;;;;2.10;0.80;;;;;;;;;;5094055;28;20476;-66
2024/01/16 05:22:16;;;;;;;0.90;0.43;;;;;;;;;;5076859;28;20462;-66
2024/01/16 05:28:07;;;;;;;3.03;1.20;;;;;;;;;;5067651;28;20836;-66
2024/01/16 05:30:34;;;;;;;1.60;0.57;;;;;;;;;;5094773;28;20461;-66
2024/01/16 05:33:01;;;;;;;2.57;0.70;;;;;;;;;;5059649;28;20471;-66
2024/01/16 05:35:28;;;;;;;4.07;0.60;;;;;;;;;;5076198;28;20465;-66
2024/01/16 05:37:59;;;;;;;1.90;0.63;;;;;;;;;;5054849;28;20479;-66
2024/01/16 05:40:26;;;;;;;2.53;0.80;;;;;;;;;;5039596;28;20432;-66
2024/01/16 05:42:52;;;;;;;1.80;0.60;;;;;;;;;;5056014;28;20539;-66
2024/01/16 05:45:19;;;;;;;0.50;0.40;;;;;;;;;;5056189;28;20490;-66
2024/01/16 05:47:46;;;;;;;1.67;0.60;;;;;;;;;;5055937;28;20431;-66
2024/01/16 05:50:13;;;;;;;3.70;0.30;;;;;;;;;;5039348;28;20472;-66
2024/01/16 05:52:40;;;;;;;5.30;1.10;;;;;;;;;;5039456;28;20416;-66
2024/01/16 05:55:10;;;;;;;1.60;0.50;;;;;;;;;;5073918;28;20420;-66
2024/01/16 05:57:37;;;;;;;0.30;0.30;;;;;;;;;;5039311;28;20530;-66
2024/01/16 06:00:05;;;;;;;1.43;0.70;;;;;;;;;;5055703;28;20466;-66
2024/01/16 06:02:32;;;;;;;2.93;0.93;;;;;;;;;;5023327;28;20436;-66
2024/01/16 06:05:00;;;;;;;2.17;1.10;;;;;;;;;;5073361;28;20439;-68
2024/01/16 06:07:27;;;;;;;2.77;1.00;;;;;;;;;;5072562;28;20470;-74
2024/01/16 06:09:54;;;;;;;1.10;0.63;;;;;;;;;;5056727;28;20482;-74
2024/01/16 06:12:21;;;;;;;2.40;0.90;;;;;;;;;;5073477;28;20516;-74
2024/01/16 06:14:47;;;;;;;2.73;1.00;;;;;;;;;;5057832;28;20478;-74
2024/01/16 06:17:14;;;;;;;1.23;0.80;;;;;;;;;;5059892;28;20425;-74
2024/01/16 06:19:41;;;;;;;2.30;1.03;;;;;;;;;;5060309;28;20451;-73
2024/01/16 06:22:08;;;;;;;2.03;0.80;;;;;;;;;;5077507;28;20825;-73
2024/01/16 06:24:36;;;;;;;3.13;1.27;;;;;;;;;;5074229;28;20778;-73
2024/01/16 06:27:07;;;;;;;3.13;0.80;;;;;;;;;;5079701;28;20420;-72
2024/01/16 06:29:34;;;;;;;0.90;0.40;;;;;;;;;;5046732;28;20773;-73
2024/01/16 06:32:01;;;;;;;2.27;1.00;;;;;;;;;;5063209;28;20446;-72
2024/01/16 06:34:34;;;;;;;2.23;0.90;;;;;;;;;;5062901;28;20933;-73
2024/01/16 06:37:01;;;;;;;4.17;0.80;;;;;;;;;;5081182;28;20396;-73
2024/01/16 06:39:28;;;;;;;2.00;0.77;;;;;;;;;;5062969;28;20419;-72
2024/01/16 06:41:55;;;;;;;3.10;1.00;;;;;;;;;;5079528;28;20453;-73
2024/01/16 06:44:22;;;;;;;2.53;0.90;;;;;;;;;;5097610;28;20824;-68
2024/01/16 06:46:49;;;;;;;3.40;0.97;;;;;;;;;;5062833;28;20435;-69
2024/01/16 06:49:16;;;;;;;2.93;1.00;;;;;;;;;;5079193;28;20453;-68
2024/01/16 06:51:43;;;;;;;2.90;1.27;;;;;;;;;;5062303;28;20482;-68
2024/01/16 06:54:10;;;;;;;3.53;1.10;;;;;;;;;;5063652;28;20419;-68
2024/01/16 06:56:37;;;;;;;3.43;1.30;;;;;;;;;;5079147;28;20419;-68
2024/01/16 06:59:04;;;;;;;3.40;1.10;;;;;;;;;;5079025;28;20441;-68
2024/01/16 07:01:34;;;;;;;4.23;1.30;;;;;;;;;;5097611;28;20404;-68
2024/01/16 07:04:01;;;;;;;3.53;1.20;;;;;;;;;;5097795;28;20430;-69
2024/01/16 07:06:28;;;;;;;1.40;0.70;;;;;;;;;;5097479;28;20738;-69
2024/01/16 07:08:55;;;;;;;1.60;0.80;;;;;;;;;;5078605;28;20470;-68
2024/01/16 07:11:22;;;;;;;1.33;0.63;;;;;;;;;;5079566;28;20467;-68
2024/01/16 07:13:51;;;;;;;5.90;2.00;;;;;;;;;;5096758;28;20409;-68
2024/01/16 07:16:18;;;;;;;6.77;2.50;;;;;;;;;;5079362;28;20438;-68
2024/01/16 07:18:44;;;;;;;10.80;3.80;;;;;;;;;;5079542;28;20438;-68
2024/01/16 07:21:17;;;;;;;6.50;1.70;;;;;;;;;;5062689;28;20437;-68
2024/01/16 07:23:44;;;;;;;2.20;1.47;;;;;;;;;;5062197;28;20431;-71
2024/01/16 07:26:12;;;;;;;3.10;1.47;;;;;;;;;;5054739;28;20756;-66
2024/01/16 07:28:39;;;;;;;3.40;1.43;;;;;;;;;;5096827;28;20423;-68
2024/01/16 07:31:06;;;;;;;3.50;1.63;;;;;;;;;;5096328;28;20499;-75
2024/01/16 07:33:33;;;;;;;0.83;0.67;;;;;;;;;;5078563;28;20433;-74
2024/01/16 07:36:00;;;;;;;3.10;1.37;;;;;;;;;;5078290;28;20816;-73
2024/01/16 07:38:27;;;;;;;2.30;1.23;;;;;;;;;;5078763;28;20438;-72
2024/01/16 07:40:56;;;;;;;3.57;1.40;;;;;;;;;;5062203;28;20481;-72
2024/01/16 07:43:23;;;;;;;5.60;2.20;;;;;;;;;;5078698;28;20431;-71
2024/01/16 07:45:50;;;;;;;4.80;2.00;;;;;;;;;;5061852;28;20886;-73
2024/01/16 07:48:17;;;;;;;5.93;1.97;;;;;;;;;;5078897;28;20432;-73
2024/01/16 07:50:45;;;;;;;5.43;2.20;;;;;;;;;;5058306;28;20878;-73
2024/01/16 07:53:12;;;;;;;5.67;2.53;;;;;;;;;;5035420;28;21655;-73
2024/01/16 07:55:39;;;;;;;6.93;3.17;;;;;;;;;;5051486;28;20504;-73
2024/01/16 07:58:06;;;;;;;5.13;2.37;;;;;;;;;;5068715;28;20419;-71
2024/01/16 08:00:33;;;;;;;5.60;2.23;;;;;;;;;;5052286;28;20506;-74
2024/01/16 08:06:59;;;;;;;4.43;1.83;;;;;;;;;;5086655;28;20429;-73
2024/01/16 08:09:27;;;;;;;5.30;2.10;;;;;;;;;;5068361;28;20448;-73
2024/01/16 08:11:53;;;;;;;2.83;1.13;;;;;;;;;;5051783;28;20455;-69
2024/01/16 08:14:21;;;;;;;4.63;1.40;;;;;;;;;;5086731;28;20522;-75
2024/01/16 08:17:06;;;;;;;3.80;1.30;;;;;;;;;;5057056;28;20396;-76
2024/01/16 08:19:33;;;;;;;3.37;1.50;;;;;;;;;;5051649;28;20552;-76
2024/01/16 08:22:02;;;;;;;2.60;1.30;;;;;;;;;;5051525;28;20540;-78
2024/01/16 08:24:33;;;;;;;3.40;1.20;;;;;;;;;;5069054;28;20430;-71
2024/01/16 08:27:00;;;;;;;5.20;2.00;;;;;;;;;;5068069;28;21426;-75
2024/01/16 08:29:27;;;;;;;4.77;1.67;;;;;;;;;;5065594;28;20428;-69
2024/01/16 08:31:54;;;;;;;6.17;2.10;;;;;;;;;;5067460;28;20961;-70
2024/01/16 08:34:20;;;;;;;5.67;2.37;;;;;;;;;;5067893;28;20439;-68
2024/01/16 08:36:47;;;;;;;6.63;2.63;;;;;;;;;;5067363;28;20468;-74
2024/01/16 08:39:16;;;;;;;6.30;2.20;;;;;;;;;;5086146;28;20435;-75
2024/01/16 08:41:45;;;;;;;4.33;2.10;;;;;;;;;;5034944;28;20440;-73
2024/01/16 08:44:12;;;;;;;4.40;1.80;;;;;;;;;;5068340;28;20415;-72
2024/01/16 08:46:39;;;;;;;5.43;2.27;;;;;;;;;;5067870;28;20526;-71
2024/01/16 08:49:06;;;;;;;9.27;2.43;;;;;;;;;;5042701;28;20427;-68
2024/01/16 08:51:33;;;;;;;5.47;2.30;;;;;;;;;;5033578;28;20483;-77
2024/01/16 08:54:00;;;;;;;3.63;2.13;;;;;;;;;;5051341;28;20523;-74
2024/01/16 08:56:27;;;;;;;3.90;1.73;;;;;;;;;;5067572;28;20808;-75
2024/01/16 08:58:53;;;;;;;6.33;2.37;;;;;;;;;;5086295;28;20918;-69
2024/01/16 09:01:20;;;;;;;5.33;2.10;;;;;;;;;;5067524;28;20427;-75
2024/01/16 09:03:47;;;;;;;6.23;2.73;;;;;;;;;;5067745;28;20428;-75
2024/01/16 09:06:15;;;;;;;5.53;2.30;;;;;;;;;;5067556;28;20502;-75
2024/01/16 09:08:44;;;;;;;7.77;2.67;;;;;;;;;;5021327;28;20463;-74
2024/01/16 09:11:11;;;;;;;5.03;2.10;;;;;;;;;;5047561;28;20459;-71
2024/01/16 09:13:38;;;;;;;8.07;3.17;;;;;;;;;;5030830;28;20767;-76
2024/01/16 09:16:05;;;;;;;6.07;2.53;;;;;;;;;;5065209;28;20518;-74
2024/01/16 09:18:32;;;;;;;5.87;2.20;;;;;;;;;;5047144;28;20886;-68
2024/01/16 09:20:59;;;;;;;7.93;2.80;;;;;;;;;;5014402;28;20826;-68
2024/01/16 09:23:26;;;;;;;5.57;2.17;;;;;;;;;;5047224;28;20412;-67
2024/01/16 09:25:54;;;;;;;6.43;2.50;;;;;;;;;;5047121;28;20417;-75
2024/01/16 09:28:21;;;;;;;5.00;2.07;;;;;;;;;;5030376;28;20446;-74
2024/01/16 09:30:47;;;;;;;6.63;2.30;;;;;;;;;;5030360;28;20870;-72
2024/01/16 09:33:16;;;;;;;6.20;2.87;;;;;;;;;;5047403;28;20480;-75
2024/01/16 09:35:47;;;;;;;6.90;2.90;;;;;;;;;;5031072;28;20442;-74
2024/01/16 09:38:14;;;;;;;5.17;2.33;;;;;;;;;;5046897;28;20440;-73
2024/01/16 09:40:43;;;;;;;4.07;1.90;;;;;;;;;;5047044;28;20852;-73
2024/01/16 09:43:11;;;;;;;5.10;1.97;;;;;;;;;;5030461;28;20432;-74
2024/01/16 09:45:37;;;;;;;4.57;1.90;;;;;;;;;;5065066;28;20478;-70
2024/01/16 09:48:04;;;;;;;7.47;2.00;;;;;;;;;;5046697;28;20425;-70
2024/01/16 09:50:33;;;;;;;4.80;2.13;;;;;;;;;;5034900;28;20506;-74
2024/01/16 09:53:00;;;;;;;8.77;2.70;;;;;;;;;;5029994;28;20428;-72
2024/01/16 09:55:28;;;;;;;6.87;2.37;;;;;;;;;;5029228;28;20443;-74
2024/01/16 09:57:55;;;;;;;4.93;1.77;;;;;;;;;;5013890;28;20474;-74
2024/01/16 10:00:22;;;;;;;7.33;2.30;;;;;;;;;;5046437;28;20512;-74
2024/01/16 10:02:49;;;;;;;4.73;1.70;;;;;;;;;;5030306;28;20424;-74
2024/01/16 10:05:16;;;;;;;4.57;1.80;;;;;;;;;;5030512;28;20412;-71
2024/01/16 10:07:45;;;;;;;5.40;2.20;;;;;;;;;;5051001;28;20459;-72
2024/01/16 10:10:12;;;;;;;8.07;2.40;;;;;;;;;;5060310;28;20436;-74
2024/01/16 10:12:40;;;;;;;6.23;2.57;;;;;;;;;;5046240;28;20545;-72
2024/01/16 10:15:10;;;;;;;3.37;1.83;;;;;;;;;;5030282;28;20435;-72
2024/01/16 10:17:40;;;;;;;4.90;1.80;;;;;;;;;;5030305;28;20440;-73
2024/01/16 10:20:12;;;;;;;3.13;1.33;;;;;;;;;;5030161;28;20941;-72
2024/01/16 10:22:41;;;;;;;3.17;1.10;;;;;;;;;;5029802;28;20452;-74
2024/01/16 10:25:09;;;;;;;2.77;1.13;;;;;;;;;;5030031;28;20798;-71
2024/01/16 10:27:36;;;;;;;4.17;1.60;;;;;;;;;;5029920;28;20432;-70
2024/01/16 10:30:04;;;;;;;4.03;1.23;;;;;;;;;;5046259;28;20428;-73
2024/01/16 10:32:33;;;;;;;3.20;2.17;;;;;;;;;;5029804;28;20546;-73
2024/01/16 10:35:13;;;;;;;4.23;1.57;;;;;;;;;;5030397;28;20440;-72
2024/01/16 10:37:50;;;;;;;5.27;1.77;;;;;;;;;;5028972;28;20441;-70
2024/01/16 10:40:18;;;;;;;3.50;1.50;;;;;;;;;;5046739;28;20478;-71
2024/01/16 10:42:59;;;;;;;4.10;2.13;;;;;;;;;;5030003;28;20432;-70
2024/01/16 10:45:26;;;;;;;6.13;1.40;;;;;;;;;;5029979;28;20515;-74
2024/01/16 10:48:03;;;;;;;3.60;1.93;;;;;;;;;;5046132;28;20436;-73
2024/01/16 10:50:31;;;;;;;3.20;1.63;;;;;;;;;;5034409;28;21066;-72
2024/01/16 10:52:59;;;;;;;2.70;1.67;;;;;;;;;;5063788;28;20468;-73
2024/01/16 10:55:27;;;;;;;4.90;1.77;;;;;;;;;;5029585;28;20428;-75
2024/01/16 10:57:54;;;;;;;4.57;1.90;;;;;;;;;;5029492;28;20433;-74
2024/01/16 11:00:21;;;;;;;3.87;1.60;;;;;;;;;;5046567;28;20425;-75
2024/01/16 11:02:49;;;;;;;3.43;1.57;;;;;;;;;;5049871;28;20478;-74
2024/01/16 11:05:17;;;;;;;2.63;1.60;;;;;;;;;;5016629;28;20436;-73
2024/01/16 11:07:43;;;;;;;4.07;1.43;;;;;;;;;;5049476;28;20463;-73
2024/01/16 11:10:10;;;;;;;2.40;1.23;;;;;;;;;;5049672;28;20437;-74
2024/01/16 11:12:38;;;;;;;3.23;1.30;;;;;;;;;;5049306;28;20463;-73
2024/01/16 11:15:08;;;;;;;3.00;0.90;;;;;;;;;;5016644;28;20792;-69
2024/01/16 11:17:35;;;;;;;4.17;1.20;;;;;;;;;;5067311;28;20990;-71
2024/01/16 11:20:09;;;;;;;3.23;1.27;;;;;;;;;;5016620;28;20443;-77
2024/01/16 11:23:01;;;;;;;5.77;1.97;;;;;;;;;;5053587;28;20435;-72
2024/01/16 11:25:34;;;;;;;2.57;1.27;;;;;;;;;;5049744;28;20420;-74
2024/01/16 11:28:13;;;;;;;1.90;1.20;;;;;;;;;;5032892;28;20435;-73
2024/01/16 11:30:40;;;;;;;3.20;1.67;;;;;;;;;;5032399;28;20493;-72
2024/01/16 11:33:27;;;;;;;4.30;1.57;;;;;;;;;;5048931;28;20468;-76
2024/01/16 11:35:54;;;;;;;5.60;2.00;;;;;;;;;;5054559;28;20424;-69
2024/01/16 11:38:21;;;;;;;4.77;1.70;;;;;;;;;;5058832;28;20448;-68
2024/01/16 11:40:48;;;;;;;3.97;1.63;;;;;;;;;;5076413;28;20431;-69
2024/01/16 11:43:34;;;;;;;6.27;2.37;;;;;;;;;;5057263;28;20439;-69
2024/01/16 11:46:07;;;;;;;6.47;2.13;;;;;;;;;;5076217;28;20431;-69
2024/01/16 11:48:34;;;;;;;4.20;1.97;;;;;;;;;;5042624;28;20776;-69
2024/01/16 11:51:07;;;;;;;2.20;1.07;;;;;;;;;;5058624;28;20454;-69
2024/01/16 11:53:39;;;;;;;2.80;0.90;;;;;;;;;;5042611;28;20478;-69
2024/01/16 11:56:18;;;;;;;6.67;2.73;;;;;;;;;;5043112;28;20466;-69
2024/01/16 11:59:14;;;;;;;8.37;2.67;;;;;;;;;;5076015;28;20525;-69
2024/01/16 12:01:44;;;;;;;5.13;1.93;;;;;;;;;;5040996;28;20748;-69
2024/01/16 12:04:11;;;;;;;4.00;1.87;;;;;;;;;;5049839;28;20531;-69
2024/01/16 12:06:38;;;;;;;2.73;1.20;;;;;;;;;;5038219;28;20441;-69
2024/01/16 12:09:13;;;;;;;4.33;1.90;;;;;;;;;;5074885;28;20859;-69
2024/01/16 12:11:40;;;;;;;4.43;1.93;;;;;;;;;;5023872;28;20464;-69
2024/01/16 12:14:09;;;;;;;3.83;1.40;;;;;;;;;;5058618;28;20510;-68
2024/01/16 12:16:36;;;;;;;2.83;1.10;;;;;;;;;;5073411;28;20988;-69
2024/01/16 12:19:07;;;;;;;3.43;1.23;;;;;;;;;;5077917;28;20461;-69
2024/01/16 12:21:44;;;;;;;3.20;1.20;;;;;;;;;;5077663;28;20427;-68
2024/01/16 12:24:13;;;;;;;4.60;1.90;;;;;;;;;;5061496;28;20967;-69
2024/01/16 12:26:44;;;;;;;2.53;1.57;;;;;;;;;;5061865;28;20427;-69
2024/01/16 12:29:11;;;;;;;4.13;1.80;;;;;;;;;;5095612;28;20481;-68
2024/01/16 12:31:38;;;;;;;2.37;1.17;;;;;;;;;;5060754;28;20464;-69
2024/01/16 12:34:07;;;;;;;2.37;1.30;;;;;;;;;;5060868;28;20435;-69
2024/01/16 12:36:35;;;;;;;2.37;0.90;;;;;;;;;;5056512;28;20440;-69
2024/01/16 12:39:02;;;;;;;2.70;1.10;;;;;;;;;;5057493;28;20412;-69
2024/01/16 12:41:31;;;;;;;1.93;0.73;;;;;;;;;;5057223;28;20527;-69
2024/01/16 12:47:53;;;;;;;3.40;0.90;;;;;;;;;;5053412;28;20424;-69
2024/01/16 12:51:07;;;;;;;2.67;1.30;;;;;;;;;;5048741;28;20399;-69
2024/01/16 12:54:28;;;;;;;4.07;1.30;;;;;;;;;;5038755;28;20432;-69
2024/01/16 12:57:28;;;;;;;2.43;0.57;;;;;;;;;;5045670;28;20439;-69
2024/01/16 13:00:31;;;;;;;4.60;1.43;;;;;;;;;;5056551;28;20429;-69
2024/01/16 13:03:40;;;;;;;;;;;;;;;;;;;;;
2024/01/16 13:06:41;;;;;;;5.47;1.70;;;;;;;;;;5055735;28;20432;-69
2024/01/16 13:09:28;;;;;;;3.90;1.50;;;;;;;;;;5039972;28;20463;-69
2024/01/16 13:12:40;;;;;;;3.13;1.50;;;;;;;;;;5060223;28;20456;-69
2024/01/16 13:19:36;;;;;;;4.47;1.90;;;;;;;;;;5080256;28;20778;-69
2024/01/16 13:22:31;;;;;;;2.87;1.20;;;;;;;;;;5060674;28;20429;-69
2024/01/16 13:29:01;;;;;;;3.37;1.57;;;;;;;;;;5059644;28;20503;-69
2024/01/16 13:32:00;;;;;;;1.90;1.13;;;;;;;;;;5046295;28;20460;-69
2024/01/16 13:35:23;;;;;;;4.47;1.80;;;;;;;;;;5030451;28;20534;-69
2024/01/16 13:38:14;;;;;;;;;;;;;;;;;;;;;
2024/01/16 13:41:57;;;;;;;4.47;1.77;;;;;;;;;;5058108;28;20438;-69
2024/01/16 13:52:12;;;;;;;10.30;3.97;;;;;;;;;;4959048;28;20476;-69
2024/01/16 13:55:34;;;;;;;3.37;1.77;;;;;;;;;;5061010;28;20425;-69
2024/01/16 14:02:28;;;;;;;2.50;1.27;;;;;;;;;;4890754;28;20445;-69
2024/01/16 14:05:36;;;;;;;4.97;2.67;;;;;;;;;;4944306;28;20436;-69
2024/01/16 14:08:35;;;;;;;6.67;2.43;;;;;;;;;;4886316;29;20464;-69
2024/01/16 14:12:21;;;;;;;5.67;2.17;;;;;;;;;;4894959;29;20466;-69
2024/01/16 14:15:54;;;;;;;3.53;1.70;;;;;;;;;;4900838;29;20438;-69
2024/01/16 14:18:47;;;;;;;6.47;2.37;;;;;;;;;;4926263;28;20425;-69
2024/01/16 14:21:53;;;;;;;9.27;3.00;;;;;;;;;;4971737;28;20442;-69
2024/01/16 14:24:57;;;;;;;10.27;3.80;;;;;;;;;;4998265;28;20463;-69
2024/01/16 14:28:03;;;;;;;5.87;3.23;;;;;;;;;;4994833;28;20475;-69
2024/01/16 14:31:37;;;;;;;8.87;3.60;;;;;;;;;;4994656;28;20898;-69
2024/01/16 14:34:56;;;;;;;9.67;4.00;;;;;;;;;;4995089;28;20442;-69
2024/01/16 14:45:07;;;;;;;10.13;3.97;;;;;;;;;;5005063;28;20422;-69
2024/01/16 14:48:22;;;;;;;8.57;3.23;;;;;;;;;;5056596;28;20534;-69
2024/01/16 14:51:01;;;;;;;9.37;4.07;;;;;;;;;;5039493;28;20472;-69
2024/01/16 14:54:06;;;;;;;11.30;4.10;;;;;;;;;;5035341;28;20422;-69
2024/01/16 14:57:17;;;;;;;14.93;5.80;;;;;;;;;;5019283;28;20429;-69
2024/01/16 15:00:27;;;;;;;16.30;5.80;;;;;;;;;;5011692;28;20445;-69
2024/01/16 15:07:46;;;;;;;21.33;7.17;;;;;;;;;;4956531;29;20524;-69
2024/01/16 15:10:49;;;;;;;20.37;9.63;;;;;;;;;;4935330;29;20469;-69
2024/01/16 15:14:28;;;;;;;15.37;6.60;;;;;;;;;;4956924;29;20895;-69
2024/01/16 15:17:28;;;;;;;17.13;7.10;;;;;;;;;;4940122;29;21070;-69
2024/01/16 15:19:55;;;;;;;16.90;7.10;;;;;;;;;;4956792;29;20962;-69
2024/01/16 15:22:22;;;;;;;17.70;7.03;;;;;;;;;;4956341;29;20523;-68
2024/01/16 15:24:49;;;;;;;19.17;8.37;;;;;;;;;;4996024;28;20430;-69
2024/01/16 15:27:16;;;;;;;22.53;8.50;;;;;;;;;;4998025;28;20545;-69
2024/01/16 15:30:01;;;;;;;15.43;7.53;;;;;;;;;;5014816;28;20382;-69
2024/01/16 15:32:27;;;;;;;20.20;7.60;;;;;;;;;;4998079;28;20849;-69
2024/01/16 15:35:12;;;;;;;20.17;8.43;;;;;;;;;;5034026;28;20463;-69
2024/01/16 15:37:39;;;;;;;28.73;10.43;;;;;;;;;;5018104;28;20497;-69
2024/01/16 15:40:06;;;;;;;24.10;10.10;;;;;;;;;;5034311;28;20518;-69
2024/01/16 15:42:36;;;;;;;30.23;10.30;;;;;;;;;;5017471;28;20453;-69
2024/01/16 15:45:04;;;;;;;37.03;12.63;;;;;;;;;;5045987;28;20502;-69
2024/01/16 15:47:31;;;;;;;73.23;20.73;;;;;;;;;;5061492;28;20440;-69
2024/01/16 15:49:59;;;;;;;33.77;12.13;;;;;;;;;;5078193;28;20490;-68
2024/01/16 15:52:27;;;;;;;44.97;13.47;;;;;;;;;;5078543;28;20934;-69
2024/01/16 15:54:54;;;;;;;28.00;11.10;;;;;;;;;;5078705;28;20435;-68
2024/01/16 15:57:21;;;;;;;30.57;10.80;;;;;;;;;;5078434;28;20892;-69
2024/01/16 15:59:49;;;;;;;31.63;11.00;;;;;;;;;;5095940;28;20433;-69
2024/01/16 16:02:16;;;;;;;26.80;10.87;;;;;;;;;;5096128;28;20431;-69
2024/01/16 16:04:44;;;;;;;24.20;10.40;;;;;;;;;;5096180;28;20415;-68
2024/01/16 16:07:11;;;;;;;29.07;10.50;;;;;;;;;;5062441;28;20430;-68
2024/01/16 16:09:42;;;;;;;33.90;12.53;;;;;;;;;;5095854;28;20961;-68
2024/01/16 16:12:09;;;;;;;38.80;14.43;;;;;;;;;;5061693;28;20949;-68
2024/01/16 16:14:39;;;;;;;55.60;25.07;;;;;;;;;;5095514;28;20431;-68
2024/01/16 16:17:08;;;;;;;35.33;15.47;;;;;;;;;;5078043;28;20931;-67
2024/01/16 16:19:35;;;;;;;35.80;13.97;;;;;;;;;;5077902;28;20414;-67
2024/01/16 16:22:04;;;;;;;39.87;15.20;;;;;;;;;;5077593;28;20430;-67
2024/01/16 16:24:31;;;;;;;39.00;15.30;;;;;;;;;;5077970;28;20416;-67
2024/01/16 16:26:59;;;;;;;38.57;13.87;;;;;;;;;;5077978;28;20435;-67
2024/01/16 16:29:27;;;;;;;41.43;15.93;;;;;;;;;;5077431;28;20423;-67
2024/01/16 16:32:12;;;;;;;35.37;13.10;;;;;;;;;;5095493;28;20457;-67
2024/01/16 16:34:39;;;;;;;37.67;14.33;;;;;;;;;;5060971;28;20426;-67